sensor_id;sensor_type;location;lat;lon;timestamp;P1;durP1;ratioP1;P2;durP2;ratioP2
64426;SDS011;50772;51.482;-0.580;2023-09-30T08:58:03;2.75;;;1.30;;
64426;SDS011;50772;51.482;-0.580;2023-09-30T09:00:29;8.52;;;1.63;;
64426;SDS011;50772;51.482;-0.580;2023-09-30T09:02:54;2.58;;;1.60;;
64426;SDS011;50772;51.482;-0.580;2023-09-30T09:05:20;4.63;;;1.27;;
64426;SDS011;50772;51.482;-0.580;2023-09-30T09:07:45;2.90;;;1.50;;
64426;SDS011;50772;51.482;-0.580;2023-09-30T09:10:12;3.80;;;1.33;;
64426;SDS011;50772;51.482;-0.580;2023-09-30T09:12:38;3.03;;;1.75;;
64426;SDS011;50772;51.482;-0.580;2023-09-30T09:15:08;1.85;;;1.35;;
64426;SDS011;50772;51.482;-0.580;2023-09-30T09:17:39;2.95;;;1.23;;
64426;SDS011;50772;51.482;-0.580;2023-09-30T09:20:06;7.55;;;1.40;;
64426;SDS011;50772;51.482;-0.580;2023-09-30T09:22:37;2.97;;;1.60;;
64426;SDS011;50772;51.482;-0.580;2023-09-30T09:25:03;4.85;;;1.70;;
64426;SDS011;50772;51.482;-0.580;2023-09-30T09:27:28;3.00;;;1.45;;
64426;SDS011;50772;51.482;-0.580;2023-09-30T09:32:29;8.15;;;1.90;;
64426;SDS011;50772;51.482;-0.580;2023-09-30T09:35:00;3.33;;;1.73;;
64426;SDS011;50772;51.482;-0.580;2023-09-30T09:37:30;2.13;;;1.52;;
64426;SDS011;50772;51.482;-0.580;2023-09-30T09:39:57;7.82;;;1.88;;
64426;SDS011;50772;51.482;-0.580;2023-09-30T09:45:00;2.95;;;1.42;;
64426;SDS011;50772;51.482;-0.580;2023-09-30T09:47:27;4.55;;;1.70;;
64426;SDS011;50772;51.482;-0.580;2023-09-30T09:49:54;4.95;;;1.50;;
64426;SDS011;50772;51.482;-0.580;2023-09-30T09:52:27;2.65;;;1.20;;
64426;SDS011;50772;51.482;-0.580;2023-09-30T09:54:53;3.63;;;1.38;;
64426;SDS011;50772;51.482;-0.580;2023-09-30T09:57:22;3.25;;;1.42;;
64426;SDS011;50772;51.482;-0.580;2023-09-30T09:59:50;3.67;;;1.67;;
64426;SDS011;50772;51.482;-0.580;2023-09-30T10:02:20;2.00;;;1.35;;
64426;SDS011;50772;51.482;-0.580;2023-09-30T10:04:47;3.42;;;1.20;;
64426;SDS011;50772;51.482;-0.580;2023-09-30T10:07:20;3.38;;;1.00;;
64426;SDS011;50772;51.482;-0.580;2023-09-30T10:09:47;2.25;;;1.15;;
64426;SDS011;50772;51.482;-0.580;2023-09-30T10:12:14;1.55;;;1.10;;
64426;SDS011;50772;51.482;-0.580;2023-09-30T10:14:42;4.65;;;1.17;;
64426;SDS011;50772;51.482;-0.580;2023-09-30T10:17:07;5.22;;;1.08;;
64426;SDS011;50772;51.482;-0.580;2023-09-30T10:19:32;2.65;;;1.30;;
64426;SDS011;50772;51.482;-0.580;2023-09-30T10:24:49;5.65;;;1.42;;
64426;SDS011;50772;51.482;-0.580;2023-09-30T10:29:46;2.55;;;1.40;;
64426;SDS011;50772;51.482;-0.580;2023-09-30T10:32:12;2.33;;;1.45;;
64426;SDS011;50772;51.482;-0.580;2023-09-30T10:34:39;1.58;;;0.95;;
64426;SDS011;50772;51.482;-0.580;2023-09-30T10:37:23;1.83;;;1.15;;
64426;SDS011;50772;51.482;-0.580;2023-09-30T10:39:53;4.13;;;1.10;;
64426;SDS011;50772;51.482;-0.580;2023-09-30T10:45:04;2.78;;;1.05;;
64426;SDS011;50772;51.482;-0.580;2023-09-30T10:49:56;1.58;;;1.15;;
64426;SDS011;50772;51.482;-0.580;2023-09-30T10:52:21;2.37;;;1.30;;
64426;SDS011;50772;51.482;-0.580;2023-09-30T10:54:48;4.20;;;1.23;;
64426;SDS011;50772;51.482;-0.580;2023-09-30T10:57:14;1.95;;;1.05;;
64426;SDS011;50772;51.482;-0.580;2023-09-30T11:02:58;2.75;;;1.20;;
64426;SDS011;50772;51.482;-0.580;2023-09-30T11:05:29;3.17;;;1.10;;
64426;SDS011;50772;51.482;-0.580;2023-09-30T11:07:57;3.08;;;1.17;;
64426;SDS011;50772;51.482;-0.580;2023-09-30T11:10:26;1.83;;;1.00;;
64426;SDS011;50772;51.482;-0.580;2023-09-30T11:12:56;1.85;;;1.10;;
64426;SDS011;50772;51.482;-0.580;2023-09-30T11:15:30;2.17;;;1.27;;
64426;SDS011;50772;51.482;-0.580;2023-09-30T11:18:12;3.25;;;1.13;;
64426;SDS011;50772;51.482;-0.580;2023-09-30T11:20:49;1.50;;;1.25;;
64426;SDS011;50772;51.482;-0.580;2023-09-30T11:23:15;3.30;;;1.20;;
64426;SDS011;50772;51.482;-0.580;2023-09-30T11:25:41;2.20;;;1.70;;
64426;SDS011;50772;51.482;-0.580;2023-09-30T11:28:16;2.33;;;1.20;;
64426;SDS011;50772;51.482;-0.580;2023-09-30T11:30:58;3.60;;;1.48;;
64426;SDS011;50772;51.482;-0.580;2023-09-30T11:33:24;3.15;;;1.30;;
64426;SDS011;50772;51.482;-0.580;2023-09-30T11:36:22;3.85;;;1.48;;
64426;SDS011;50772;51.482;-0.580;2023-09-30T11:38:43;2.78;;;1.70;;
64426;SDS011;50772;51.482;-0.580;2023-09-30T11:41:09;2.43;;;1.87;;
64426;SDS011;50772;51.482;-0.580;2023-09-30T11:43:37;2.78;;;1.52;;
64426;SDS011;50772;51.482;-0.580;2023-09-30T11:46:07;3.45;;;1.50;;
64426;SDS011;50772;51.482;-0.580;2023-09-30T11:48:33;2.20;;;1.60;;
64426;SDS011;50772;51.482;-0.580;2023-09-30T11:51:00;3.00;;;1.40;;
64426;SDS011;50772;51.482;-0.580;2023-09-30T11:53:30;2.30;;;1.52;;
64426;SDS011;50772;51.482;-0.580;2023-09-30T11:55:56;1.83;;;1.40;;
64426;SDS011;50772;51.482;-0.580;2023-09-30T11:58:27;2.55;;;1.58;;
64426;SDS011;50772;51.482;-0.580;2023-09-30T12:00:57;4.40;;;1.50;;
64426;SDS011;50772;51.482;-0.580;2023-09-30T12:03:22;2.17;;;1.25;;
64426;SDS011;50772;51.482;-0.580;2023-09-30T12:05:48;1.98;;;1.35;;
64426;SDS011;50772;51.482;-0.580;2023-09-30T12:08:13;3.25;;;1.33;;
64426;SDS011;50772;51.482;-0.580;2023-09-30T12:10:39;2.42;;;1.30;;
64426;SDS011;50772;51.482;-0.580;2023-09-30T12:13:05;1.60;;;1.50;;
64426;SDS011;50772;51.482;-0.580;2023-09-30T12:15:30;1.73;;;1.30;;
64426;SDS011;50772;51.482;-0.580;2023-09-30T12:17:55;2.67;;;1.25;;
64426;SDS011;50772;51.482;-0.580;2023-09-30T12:20:30;4.55;;;1.15;;
64426;SDS011;50772;51.482;-0.580;2023-09-30T12:23:06;3.75;;;1.60;;
64426;SDS011;50772;51.482;-0.580;2023-09-30T12:25:31;2.70;;;1.20;;
64426;SDS011;50772;51.482;-0.580;2023-09-30T12:28:02;2.58;;;0.90;;
64426;SDS011;50772;51.482;-0.580;2023-09-30T12:30:27;2.17;;;1.38;;
64426;SDS011;50772;51.482;-0.580;2023-09-30T12:32:57;1.23;;;1.13;;
64426;SDS011;50772;51.482;-0.580;2023-09-30T12:35:22;1.10;;;1.00;;
64426;SDS011;50772;51.482;-0.580;2023-09-30T12:37:48;5.80;;;1.50;;
64426;SDS011;50772;51.482;-0.580;2023-09-30T12:40:13;3.23;;;1.63;;
64426;SDS011;50772;51.482;-0.580;2023-09-30T12:42:42;3.15;;;1.70;;
64426;SDS011;50772;51.482;-0.580;2023-09-30T12:45:07;3.45;;;1.52;;
64426;SDS011;50772;51.482;-0.580;2023-09-30T12:47:33;3.08;;;1.40;;
64426;SDS011;50772;51.482;-0.580;2023-09-30T12:49:58;3.27;;;1.47;;
64426;SDS011;50772;51.482;-0.580;2023-09-30T12:52:23;3.63;;;1.50;;
64426;SDS011;50772;51.482;-0.580;2023-09-30T12:54:49;1.50;;;1.30;;
64426;SDS011;50772;51.482;-0.580;2023-09-30T12:57:14;1.77;;;1.13;;
64426;SDS011;50772;51.482;-0.580;2023-09-30T12:59:42;2.70;;;1.35;;
64426;SDS011;50772;51.482;-0.580;2023-09-30T13:02:08;2.38;;;1.35;;
64426;SDS011;50772;51.482;-0.580;2023-09-30T13:04:34;3.00;;;1.55;;
64426;SDS011;50772;51.482;-0.580;2023-09-30T13:06:59;3.53;;;1.33;;
64426;SDS011;50772;51.482;-0.580;2023-09-30T13:09:25;2.63;;;1.50;;
64426;SDS011;50772;51.482;-0.580;2023-09-30T13:11:50;1.83;;;1.30;;
64426;SDS011;50772;51.482;-0.580;2023-09-30T13:14:15;1.40;;;1.30;;
64426;SDS011;50772;51.482;-0.580;2023-09-30T13:16:40;1.83;;;1.70;;
64426;SDS011;50772;51.482;-0.580;2023-09-30T13:19:06;1.50;;;1.35;;
64426;SDS011;50772;51.482;-0.580;2023-09-30T13:21:31;2.00;;;1.43;;
64426;SDS011;50772;51.482;-0.580;2023-09-30T13:23:56;2.42;;;1.27;;
64426;SDS011;50772;51.482;-0.580;2023-09-30T13:26:22;2.83;;;1.30;;
64426;SDS011;50772;51.482;-0.580;2023-09-30T13:28:47;1.87;;;1.40;;
64426;SDS011;50772;51.482;-0.580;2023-09-30T13:31:12;1.88;;;1.40;;
64426;SDS011;50772;51.482;-0.580;2023-09-30T13:33:37;2.53;;;1.40;;
64426;SDS011;50772;51.482;-0.580;2023-09-30T13:36:03;2.03;;;1.73;;
64426;SDS011;50772;51.482;-0.580;2023-09-30T13:38:29;6.40;;;1.63;;
64426;SDS011;50772;51.482;-0.580;2023-09-30T13:40:54;1.67;;;1.10;;
64426;SDS011;50772;51.482;-0.580;2023-09-30T13:43:24;2.47;;;1.38;;
64426;SDS011;50772;51.482;-0.580;2023-09-30T13:45:51;3.58;;;1.52;;
64426;SDS011;50772;51.482;-0.580;2023-09-30T13:48:16;2.40;;;1.37;;
64426;SDS011;50772;51.482;-0.580;2023-09-30T13:50:41;3.53;;;1.50;;
64426;SDS011;50772;51.482;-0.580;2023-09-30T13:53:07;2.00;;;1.30;;
64426;SDS011;50772;51.482;-0.580;2023-09-30T13:55:32;3.80;;;1.47;;
64426;SDS011;50772;51.482;-0.580;2023-09-30T13:57:57;1.73;;;1.30;;
64426;SDS011;50772;51.482;-0.580;2023-09-30T14:00:24;1.35;;;1.13;;
64426;SDS011;50772;51.482;-0.580;2023-09-30T14:02:57;10.07;;;1.30;;
64426;SDS011;50772;51.482;-0.580;2023-09-30T14:05:24;2.65;;;1.40;;
64426;SDS011;50772;51.482;-0.580;2023-09-30T14:07:49;1.53;;;1.07;;
64426;SDS011;50772;51.482;-0.580;2023-09-30T14:10:16;4.28;;;1.27;;
64426;SDS011;50772;51.482;-0.580;2023-09-30T14:12:41;4.15;;;1.52;;
64426;SDS011;50772;51.482;-0.580;2023-09-30T14:15:08;1.98;;;1.33;;
64426;SDS011;50772;51.482;-0.580;2023-09-30T14:17:37;2.17;;;1.27;;
64426;SDS011;50772;51.482;-0.580;2023-09-30T14:20:06;2.50;;;1.38;;
64426;SDS011;50772;51.482;-0.580;2023-09-30T14:22:35;2.00;;;1.23;;
64426;SDS011;50772;51.482;-0.580;2023-09-30T14:25:05;3.72;;;1.55;;
64426;SDS011;50772;51.482;-0.580;2023-09-30T14:27:32;5.60;;;1.17;;
64426;SDS011;50772;51.482;-0.580;2023-09-30T14:29:57;2.90;;;1.27;;
64426;SDS011;50772;51.482;-0.580;2023-09-30T14:32:23;3.57;;;1.40;;
64426;SDS011;50772;51.482;-0.580;2023-09-30T14:34:51;3.63;;;1.30;;
64426;SDS011;50772;51.482;-0.580;2023-09-30T14:37:18;1.90;;;0.90;;
64426;SDS011;50772;51.482;-0.580;2023-09-30T14:39:43;2.13;;;1.17;;
64426;SDS011;50772;51.482;-0.580;2023-09-30T14:42:09;2.72;;;1.75;;
64426;SDS011;50772;51.482;-0.580;2023-09-30T14:44:34;3.87;;;1.10;;
64426;SDS011;50772;51.482;-0.580;2023-09-30T14:46:59;3.00;;;1.40;;
64426;SDS011;50772;51.482;-0.580;2023-09-30T14:49:27;1.95;;;1.05;;
64426;SDS011;50772;51.482;-0.580;2023-09-30T14:51:53;1.30;;;1.20;;
64426;SDS011;50772;51.482;-0.580;2023-09-30T14:54:18;2.35;;;1.08;;
64426;SDS011;50772;51.482;-0.580;2023-09-30T14:56:43;3.73;;;1.47;;
64426;SDS011;50772;51.482;-0.580;2023-09-30T14:59:08;4.27;;;1.50;;
64426;SDS011;50772;51.482;-0.580;2023-09-30T15:01:34;3.38;;;1.58;;
64426;SDS011;50772;51.482;-0.580;2023-09-30T15:03:59;2.95;;;1.50;;
64426;SDS011;50772;51.482;-0.580;2023-09-30T15:06:24;2.38;;;1.17;;
64426;SDS011;50772;51.482;-0.580;2023-09-30T15:08:50;3.47;;;1.27;;
64426;SDS011;50772;51.482;-0.580;2023-09-30T15:11:15;4.70;;;1.38;;
64426;SDS011;50772;51.482;-0.580;2023-09-30T15:13:43;1.30;;;1.20;;
64426;SDS011;50772;51.482;-0.580;2023-09-30T15:16:14;5.10;;;1.40;;
64426;SDS011;50772;51.482;-0.580;2023-09-30T15:18:40;2.15;;;1.20;;
64426;SDS011;50772;51.482;-0.580;2023-09-30T15:21:05;2.92;;;1.35;;
64426;SDS011;50772;51.482;-0.580;2023-09-30T15:23:30;2.17;;;1.20;;
64426;SDS011;50772;51.482;-0.580;2023-09-30T15:26:01;5.78;;;1.30;;
64426;SDS011;50772;51.482;-0.580;2023-09-30T15:28:27;3.28;;;1.35;;
64426;SDS011;50772;51.482;-0.580;2023-09-30T15:30:53;2.40;;;1.23;;
64426;SDS011;50772;51.482;-0.580;2023-09-30T15:33:18;2.83;;;1.30;;
64426;SDS011;50772;51.482;-0.580;2023-09-30T15:35:45;3.63;;;1.42;;
64426;SDS011;50772;51.482;-0.580;2023-09-30T15:38:11;2.22;;;1.40;;
64426;SDS011;50772;51.482;-0.580;2023-09-30T15:43:18;2.75;;;1.50;;
64426;SDS011;50772;51.482;-0.580;2023-09-30T15:45:43;3.20;;;1.40;;
64426;SDS011;50772;51.482;-0.580;2023-09-30T15:48:11;1.92;;;1.10;;
64426;SDS011;50772;51.482;-0.580;2023-09-30T15:50:41;2.13;;;0.95;;
64426;SDS011;50772;51.482;-0.580;2023-09-30T15:53:10;4.65;;;1.73;;
64426;SDS011;50772;51.482;-0.580;2023-09-30T15:55:35;2.55;;;1.65;;
64426;SDS011;50772;51.482;-0.580;2023-09-30T15:58:00;5.50;;;1.40;;
64426;SDS011;50772;51.482;-0.580;2023-09-30T16:00:26;2.03;;;1.10;;
64426;SDS011;50772;51.482;-0.580;2023-09-30T16:02:51;5.63;;;1.25;;
64426;SDS011;50772;51.482;-0.580;2023-09-30T16:05:16;6.23;;;1.60;;
64426;SDS011;50772;51.482;-0.580;2023-09-30T16:07:42;5.65;;;1.60;;
64426;SDS011;50772;51.482;-0.580;2023-09-30T16:10:09;2.67;;;1.05;;
64426;SDS011;50772;51.482;-0.580;2023-09-30T16:12:34;2.50;;;1.33;;
64426;SDS011;50772;51.482;-0.580;2023-09-30T16:15:03;4.47;;;1.30;;
64426;SDS011;50772;51.482;-0.580;2023-09-30T16:17:31;3.72;;;1.30;;
64426;SDS011;50772;51.482;-0.580;2023-09-30T16:19:56;1.52;;;1.42;;
64426;SDS011;50772;51.482;-0.580;2023-09-30T16:22:43;3.30;;;1.30;;
64426;SDS011;50772;51.482;-0.580;2023-09-30T16:25:07;2.17;;;1.23;;
64426;SDS011;50772;51.482;-0.580;2023-09-30T16:27:34;3.03;;;1.38;;
64426;SDS011;50772;51.482;-0.580;2023-09-30T16:29:59;3.17;;;1.17;;
64426;SDS011;50772;51.482;-0.580;2023-09-30T16:32:25;1.90;;;1.10;;
64426;SDS011;50772;51.482;-0.580;2023-09-30T16:34:50;2.37;;;1.27;;
64426;SDS011;50772;51.482;-0.580;2023-09-30T16:37:15;1.63;;;1.35;;
64426;SDS011;50772;51.482;-0.580;2023-09-30T16:39:41;1.90;;;1.13;;
64426;SDS011;50772;51.482;-0.580;2023-09-30T16:42:06;3.47;;;1.35;;
64426;SDS011;50772;51.482;-0.580;2023-09-30T16:44:32;4.07;;;1.20;;
64426;SDS011;50772;51.482;-0.580;2023-09-30T16:46:57;2.55;;;1.35;;
64426;SDS011;50772;51.482;-0.580;2023-09-30T16:49:22;2.10;;;1.25;;
64426;SDS011;50772;51.482;-0.580;2023-09-30T16:51:48;2.50;;;1.43;;
64426;SDS011;50772;51.482;-0.580;2023-09-30T16:54:15;2.83;;;1.33;;
64426;SDS011;50772;51.482;-0.580;2023-09-30T16:56:42;4.00;;;1.52;;
64426;SDS011;50772;51.482;-0.580;2023-09-30T16:59:07;2.75;;;1.50;;
64426;SDS011;50772;51.482;-0.580;2023-09-30T17:01:34;1.95;;;1.30;;
64426;SDS011;50772;51.482;-0.580;2023-09-30T17:04:03;3.28;;;1.20;;
64426;SDS011;50772;51.482;-0.580;2023-09-30T17:06:28;4.22;;;1.23;;
64426;SDS011;50772;51.482;-0.580;2023-09-30T17:08:53;2.23;;;1.40;;
64426;SDS011;50772;51.482;-0.580;2023-09-30T17:11:19;2.33;;;1.35;;
64426;SDS011;50772;51.482;-0.580;2023-09-30T17:13:44;3.17;;;1.50;;
64426;SDS011;50772;51.482;-0.580;2023-09-30T17:16:09;4.00;;;1.60;;
64426;SDS011;50772;51.482;-0.580;2023-09-30T17:18:36;3.53;;;1.38;;
64426;SDS011;50772;51.482;-0.580;2023-09-30T17:21:02;3.70;;;1.40;;
64426;SDS011;50772;51.482;-0.580;2023-09-30T17:23:28;7.80;;;1.90;;
64426;SDS011;50772;51.482;-0.580;2023-09-30T17:25:59;4.43;;;1.52;;
64426;SDS011;50772;51.482;-0.580;2023-09-30T17:28:26;5.45;;;1.80;;
64426;SDS011;50772;51.482;-0.580;2023-09-30T17:30:51;2.95;;;1.55;;
64426;SDS011;50772;51.482;-0.580;2023-09-30T17:33:16;4.27;;;1.80;;
64426;SDS011;50772;51.482;-0.580;2023-09-30T17:35:41;2.05;;;1.83;;
64426;SDS011;50772;51.482;-0.580;2023-09-30T17:38:07;5.13;;;1.77;;
64426;SDS011;50772;51.482;-0.580;2023-09-30T17:40:36;4.15;;;1.55;;
64426;SDS011;50772;51.482;-0.580;2023-09-30T17:43:04;4.72;;;2.33;;
64426;SDS011;50772;51.482;-0.580;2023-09-30T17:45:29;5.23;;;1.83;;
64426;SDS011;50772;51.482;-0.580;2023-09-30T17:47:57;3.60;;;1.80;;
64426;SDS011;50772;51.482;-0.580;2023-09-30T17:50:22;3.70;;;1.43;;
64426;SDS011;50772;51.482;-0.580;2023-09-30T17:52:47;4.68;;;1.95;;
64426;SDS011;50772;51.482;-0.580;2023-09-30T17:55:12;5.73;;;1.63;;
64426;SDS011;50772;51.482;-0.580;2023-09-30T17:57:42;7.63;;;2.10;;
64426;SDS011;50772;51.482;-0.580;2023-09-30T18:00:07;2.08;;;1.58;;
64426;SDS011;50772;51.482;-0.580;2023-09-30T18:02:33;7.50;;;1.70;;
64426;SDS011;50772;51.482;-0.580;2023-09-30T18:04:58;2.47;;;1.52;;
64426;SDS011;50772;51.482;-0.580;2023-09-30T18:07:23;3.63;;;2.80;;
64426;SDS011;50772;51.482;-0.580;2023-09-30T18:09:50;5.10;;;3.50;;
64426;SDS011;50772;51.482;-0.580;2023-09-30T18:12:15;4.63;;;2.30;;
64426;SDS011;50772;51.482;-0.580;2023-09-30T18:14:40;5.32;;;2.35;;
64426;SDS011;50772;51.482;-0.580;2023-09-30T18:17:06;5.30;;;2.37;;
64426;SDS011;50772;51.482;-0.580;2023-09-30T18:19:31;6.93;;;3.30;;
64426;SDS011;50772;51.482;-0.580;2023-09-30T18:21:56;2.75;;;2.13;;
64426;SDS011;50772;51.482;-0.580;2023-09-30T18:24:21;3.55;;;1.70;;
64426;SDS011;50772;51.482;-0.580;2023-09-30T18:26:47;6.07;;;1.90;;
64426;SDS011;50772;51.482;-0.580;2023-09-30T18:29:15;3.55;;;1.73;;
64426;SDS011;50772;51.482;-0.580;2023-09-30T18:31:40;4.93;;;2.07;;
64426;SDS011;50772;51.482;-0.580;2023-09-30T18:34:09;6.78;;;1.95;;
64426;SDS011;50772;51.482;-0.580;2023-09-30T18:36:34;5.90;;;2.15;;
64426;SDS011;50772;51.482;-0.580;2023-09-30T18:39:00;4.78;;;2.08;;
64426;SDS011;50772;51.482;-0.580;2023-09-30T18:41:25;5.35;;;1.63;;
64426;SDS011;50772;51.482;-0.580;2023-09-30T18:43:50;3.97;;;1.77;;
64426;SDS011;50772;51.482;-0.580;2023-09-30T18:46:21;3.38;;;1.83;;
64426;SDS011;50772;51.482;-0.580;2023-09-30T18:48:47;6.82;;;1.80;;
64426;SDS011;50772;51.482;-0.580;2023-09-30T18:51:19;5.18;;;1.88;;
64426;SDS011;50772;51.482;-0.580;2023-09-30T18:53:47;4.55;;;2.45;;
64426;SDS011;50772;51.482;-0.580;2023-09-30T18:56:19;3.97;;;2.17;;
64426;SDS011;50772;51.482;-0.580;2023-09-30T18:58:47;7.78;;;2.45;;
64426;SDS011;50772;51.482;-0.580;2023-09-30T19:01:12;6.47;;;2.13;;
64426;SDS011;50772;51.482;-0.580;2023-09-30T19:03:40;4.85;;;2.10;;
64426;SDS011;50772;51.482;-0.580;2023-09-30T19:06:06;7.18;;;2.22;;
64426;SDS011;50772;51.482;-0.580;2023-09-30T19:08:32;5.97;;;2.42;;
64426;SDS011;50772;51.482;-0.580;2023-09-30T19:11:02;5.05;;;2.00;;
64426;SDS011;50772;51.482;-0.580;2023-09-30T19:13:29;10.15;;;2.45;;
64426;SDS011;50772;51.482;-0.580;2023-09-30T19:15:54;4.53;;;2.15;;
64426;SDS011;50772;51.482;-0.580;2023-09-30T19:18:20;5.90;;;2.35;;
64426;SDS011;50772;51.482;-0.580;2023-09-30T19:20:47;5.05;;;2.10;;
64426;SDS011;50772;51.482;-0.580;2023-09-30T19:23:12;6.10;;;2.75;;
64426;SDS011;50772;51.482;-0.580;2023-09-30T19:25:40;5.05;;;2.10;;
64426;SDS011;50772;51.482;-0.580;2023-09-30T19:28:12;5.35;;;2.20;;
64426;SDS011;50772;51.482;-0.580;2023-09-30T19:30:37;4.88;;;1.80;;
64426;SDS011;50772;51.482;-0.580;2023-09-30T19:33:02;3.42;;;1.80;;
64426;SDS011;50772;51.482;-0.580;2023-09-30T19:35:31;7.30;;;2.17;;
64426;SDS011;50772;51.482;-0.580;2023-09-30T19:37:56;4.18;;;2.22;;
64426;SDS011;50772;51.482;-0.580;2023-09-30T19:40:21;6.15;;;2.28;;
64426;SDS011;50772;51.482;-0.580;2023-09-30T19:42:47;5.47;;;1.97;;
64426;SDS011;50772;51.482;-0.580;2023-09-30T19:45:14;7.45;;;2.10;;
64426;SDS011;50772;51.482;-0.580;2023-09-30T19:47:41;5.95;;;2.55;;
64426;SDS011;50772;51.482;-0.580;2023-09-30T19:50:06;4.28;;;1.95;;
64426;SDS011;50772;51.482;-0.580;2023-09-30T19:52:37;9.25;;;2.40;;
64426;SDS011;50772;51.482;-0.580;2023-09-30T19:55:02;7.05;;;2.58;;
64426;SDS011;50772;51.482;-0.580;2023-09-30T19:57:27;4.03;;;2.22;;
64426;SDS011;50772;51.482;-0.580;2023-09-30T19:59:56;7.57;;;2.40;;
64426;SDS011;50772;51.482;-0.580;2023-09-30T20:02:21;11.33;;;2.67;;
64426;SDS011;50772;51.482;-0.580;2023-09-30T20:04:47;6.65;;;2.30;;
64426;SDS011;50772;51.482;-0.580;2023-09-30T20:07:15;6.10;;;2.40;;
64426;SDS011;50772;51.482;-0.580;2023-09-30T20:09:40;3.55;;;2.08;;
64426;SDS011;50772;51.482;-0.580;2023-09-30T20:12:08;5.30;;;2.40;;
64426;SDS011;50772;51.482;-0.580;2023-09-30T20:14:33;3.60;;;2.15;;
64426;SDS011;50772;51.482;-0.580;2023-09-30T20:16:59;8.52;;;2.40;;
64426;SDS011;50772;51.482;-0.580;2023-09-30T20:19:24;4.55;;;2.08;;
64426;SDS011;50772;51.482;-0.580;2023-09-30T20:21:50;10.43;;;2.45;;
64426;SDS011;50772;51.482;-0.580;2023-09-30T20:24:16;9.15;;;2.45;;
64426;SDS011;50772;51.482;-0.580;2023-09-30T20:26:42;9.40;;;2.07;;
64426;SDS011;50772;51.482;-0.580;2023-09-30T20:29:08;2.95;;;2.17;;
64426;SDS011;50772;51.482;-0.580;2023-09-30T20:31:33;7.17;;;2.47;;
64426;SDS011;50772;51.482;-0.580;2023-09-30T20:34:00;3.25;;;2.30;;
64426;SDS011;50772;51.482;-0.580;2023-09-30T20:36:25;5.10;;;2.17;;
64426;SDS011;50772;51.482;-0.580;2023-09-30T20:38:51;5.40;;;2.53;;
64426;SDS011;50772;51.482;-0.580;2023-09-30T20:41:17;9.57;;;2.17;;
64426;SDS011;50772;51.482;-0.580;2023-09-30T20:43:43;9.20;;;2.25;;
64426;SDS011;50772;51.482;-0.580;2023-09-30T20:46:08;2.65;;;2.05;;
64426;SDS011;50772;51.482;-0.580;2023-09-30T20:48:35;6.38;;;2.30;;
64426;SDS011;50772;51.482;-0.580;2023-09-30T20:51:04;3.30;;;2.25;;
64426;SDS011;50772;51.482;-0.580;2023-09-30T20:53:31;5.70;;;2.33;;
64426;SDS011;50772;51.482;-0.580;2023-09-30T20:55:57;5.78;;;2.22;;
64426;SDS011;50772;51.482;-0.580;2023-09-30T20:58:25;6.10;;;2.55;;
64426;SDS011;50772;51.482;-0.580;2023-09-30T21:00:51;5.18;;;2.22;;
64426;SDS011;50772;51.482;-0.580;2023-09-30T21:03:16;6.68;;;2.28;;
64426;SDS011;50772;51.482;-0.580;2023-09-30T21:05:42;3.55;;;2.10;;
64426;SDS011;50772;51.482;-0.580;2023-09-30T21:08:08;6.97;;;2.47;;
64426;SDS011;50772;51.482;-0.580;2023-09-30T21:10:34;4.75;;;2.42;;
64426;SDS011;50772;51.482;-0.580;2023-09-30T21:12:59;4.75;;;2.20;;
64426;SDS011;50772;51.482;-0.580;2023-09-30T21:15:24;6.85;;;2.22;;
64426;SDS011;50772;51.482;-0.580;2023-09-30T21:17:50;6.27;;;2.50;;
64426;SDS011;50772;51.482;-0.580;2023-09-30T21:20:15;6.35;;;2.38;;
64426;SDS011;50772;51.482;-0.580;2023-09-30T21:22:40;4.07;;;2.83;;
64426;SDS011;50772;51.482;-0.580;2023-09-30T21:25:06;3.63;;;2.13;;
64426;SDS011;50772;51.482;-0.580;2023-09-30T21:27:31;7.40;;;3.03;;
64426;SDS011;50772;51.482;-0.580;2023-09-30T21:29:56;6.63;;;2.70;;
64426;SDS011;50772;51.482;-0.580;2023-09-30T21:32:22;3.42;;;2.15;;
64426;SDS011;50772;51.482;-0.580;2023-09-30T21:34:47;5.40;;;2.70;;
64426;SDS011;50772;51.482;-0.580;2023-09-30T21:37:12;4.32;;;2.35;;
64426;SDS011;50772;51.482;-0.580;2023-09-30T21:39:40;9.18;;;2.78;;
64426;SDS011;50772;51.482;-0.580;2023-09-30T21:42:06;5.97;;;2.45;;
64426;SDS011;50772;51.482;-0.580;2023-09-30T21:44:32;5.93;;;2.35;;
64426;SDS011;50772;51.482;-0.580;2023-09-30T21:46:58;5.68;;;2.72;;
64426;SDS011;50772;51.482;-0.580;2023-09-30T21:49:23;8.30;;;2.80;;
64426;SDS011;50772;51.482;-0.580;2023-09-30T21:51:49;5.03;;;2.97;;
64426;SDS011;50772;51.482;-0.580;2023-09-30T21:54:14;5.33;;;2.47;;
64426;SDS011;50772;51.482;-0.580;2023-09-30T21:56:40;7.88;;;2.55;;
64426;SDS011;50772;51.482;-0.580;2023-09-30T21:59:08;8.18;;;3.38;;
64426;SDS011;50772;51.482;-0.580;2023-09-30T22:01:33;3.42;;;2.53;;
64426;SDS011;50772;51.482;-0.580;2023-09-30T22:03:58;6.10;;;2.60;;
64426;SDS011;50772;51.482;-0.580;2023-09-30T22:06:27;8.73;;;3.55;;
64426;SDS011;50772;51.482;-0.580;2023-09-30T22:08:53;3.65;;;2.58;;
64426;SDS011;50772;51.482;-0.580;2023-09-30T22:11:18;4.65;;;2.70;;
64426;SDS011;50772;51.482;-0.580;2023-09-30T22:13:44;4.38;;;2.63;;
64426;SDS011;50772;51.482;-0.580;2023-09-30T22:16:10;8.35;;;2.78;;
64426;SDS011;50772;51.482;-0.580;2023-09-30T22:18:36;10.57;;;3.20;;
64426;SDS011;50772;51.482;-0.580;2023-09-30T22:21:01;10.52;;;2.97;;
64426;SDS011;50772;51.482;-0.580;2023-09-30T22:23:26;3.53;;;2.65;;
64426;SDS011;50772;51.482;-0.580;2023-09-30T22:25:52;4.22;;;2.75;;
64426;SDS011;50772;51.482;-0.580;2023-09-30T22:28:17;5.53;;;2.80;;
64426;SDS011;50772;51.482;-0.580;2023-09-30T22:30:42;3.83;;;2.58;;
64426;SDS011;50772;51.482;-0.580;2023-09-30T22:33:08;6.53;;;2.97;;
64426;SDS011;50772;51.482;-0.580;2023-09-30T22:35:37;4.30;;;2.78;;
64426;SDS011;50772;51.482;-0.580;2023-09-30T22:38:05;6.97;;;2.65;;
64426;SDS011;50772;51.482;-0.580;2023-09-30T22:40:31;6.22;;;2.67;;
64426;SDS011;50772;51.482;-0.580;2023-09-30T22:42:57;3.38;;;2.78;;
64426;SDS011;50772;51.482;-0.580;2023-09-30T22:45:26;7.93;;;2.85;;
64426;SDS011;50772;51.482;-0.580;2023-09-30T22:47:52;7.70;;;2.72;;
64426;SDS011;50772;51.482;-0.580;2023-09-30T22:50:18;7.03;;;2.80;;
64426;SDS011;50772;51.482;-0.580;2023-09-30T22:52:45;7.68;;;2.63;;
64426;SDS011;50772;51.482;-0.580;2023-09-30T22:55:14;3.85;;;2.60;;
64426;SDS011;50772;51.482;-0.580;2023-09-30T22:57:40;13.65;;;3.00;;
64426;SDS011;50772;51.482;-0.580;2023-09-30T23:00:06;4.63;;;2.80;;
64426;SDS011;50772;51.482;-0.580;2023-09-30T23:02:33;5.07;;;2.85;;
64426;SDS011;50772;51.482;-0.580;2023-09-30T23:05:01;7.15;;;2.97;;
64426;SDS011;50772;51.482;-0.580;2023-09-30T23:07:27;4.82;;;2.78;;
64426;SDS011;50772;51.482;-0.580;2023-09-30T23:09:52;11.82;;;2.85;;
64426;SDS011;50772;51.482;-0.580;2023-09-30T23:12:18;5.75;;;3.00;;
64426;SDS011;50772;51.482;-0.580;2023-09-30T23:14:43;7.05;;;3.00;;
64426;SDS011;50772;51.482;-0.580;2023-09-30T23:17:09;9.40;;;3.33;;
64426;SDS011;50772;51.482;-0.580;2023-09-30T23:19:34;7.95;;;2.88;;
64426;SDS011;50772;51.482;-0.580;2023-09-30T23:22:00;5.35;;;3.00;;
64426;SDS011;50772;51.482;-0.580;2023-09-30T23:24:25;6.47;;;2.75;;
64426;SDS011;50772;51.482;-0.580;2023-09-30T23:26:51;4.60;;;2.53;;
64426;SDS011;50772;51.482;-0.580;2023-09-30T23:29:20;9.77;;;3.42;;
